Scottsville, NY (14546)

12:12 AM EST on March 06, 2015 (GMT -0500)
Black Creek | Change Station
CLOSE
Current Station
Personal Weather Station
Location: N Chili, NY
Elevation: 570 ft
Nearby Weather Stations

Elev 570 ft 43.08 °N, 77.79 °W | Updated 11 minutes ago

Clear
Clear
7.2 °F
Feels Like 7 °F
N
3.0
Wind Variable Wind from WSW
Gusts 8.0 mph

Today
High -- | Low -- °F
--% Chance of Precip.
Yesterday
High -- | Low -- °F
Precip. -- in
6:39 AM 6:06 PM
Full, 100% visible
Pressure 30.52 in
Visibility 10.0 miles
Clouds Clear
Windchill 7 °F
Dew Point 1 °F
Humidity 76%
Rainfall in
Snow Depth Not available.
UV 0 out of 12
Pollen .40 out of 12
Air Quality Not available.
Flu Activity Not available.
METAR KROC 060454Z 26008KT 10SM CLR M14/M19 A3047 RMK AO2 SLP334 T11391194 410441139

More Conditions Fewer Conditions

Pressure 30.52 in
Visibility 10.0 miles
Clouds Clear
Windchill 7 °F
Dew Point 1 °F
Humidity 76%
Rainfall in
Snow Depth Not available.
UV 0 out of 12
Pollen .40 out of 12
Air Quality Not available.
Flu Activity Not available.
METAR KROC 060454Z 26008KT 10SM CLR M14/M19 A3047 RMK AO2 SLP334 T11391194 410441139

More Conditions Fewer Conditions

10-Day Weather Forecast

Almanac

Astronomy

Mar. 06, 2015 Rise Set
Actual Time
Civil Twilight
Nautical Twilight
Astronomical Twilight
Moon
Length of Visible Light
Length of Day
Tomorrow will be .
, % of the Moon is Illuminated

Today's Extremes

State Highs State Lows

Community

WunderPhotos

Upload Photos

1,803,194 photos uploaded!

WunderBlogs® & News

Nearby

Air Quality

  Air Quality AQ Index Pollutant
Not available.

Snow Depth

Station Depth Elevation

Earthquake Activity

City Distance Mag. Time & Date
Minimum magnitude displayed is 2.5.

Coastal Water Temperatures

Place Temperature

Nearby Weather Stations